Time;durP1;ratioP1;P1;durP2;ratioP2;P2;SDS_P1;SDS_P2;PMS_P1;PMS_P2;Temp;Humidity;BMP_temperature;BMP_pressure;BME280_temperature;BME280_humidity;BME280_pressure;Samples;Min_cycle;Max_cycle;Signal;HPM_P1;HPM_P2
2023/01/19 00:01:10;;;;;;;4.20;1.20;;;2.80;99.90;;;;;;5016943;28;20497;-68
2023/01/19 00:03:36;;;;;;;3.55;0.90;;;2.80;99.90;;;;;;5035746;28;20041;-68
2023/01/19 00:06:06;;;;;;;3.22;1.20;;;2.90;99.90;;;;;;5033850;28;20044;-68
2023/01/19 00:08:32;;;;;;;7.18;1.30;;;2.90;99.90;;;;;;5033654;28;20078;-68
2023/01/19 00:10:57;;;;;;;3.90;1.30;;;2.90;99.90;;;;;;5034061;28;20474;-68
2023/01/19 00:13:23;;;;;;;5.40;1.38;;;3.00;99.90;;;;;;5034053;28;20052;-68
2023/01/19 00:15:48;;;;;;;8.80;1.25;;;2.90;99.90;;;;;;5033044;28;20566;-68
2023/01/19 00:18:14;;;;;;;4.88;1.00;;;3.00;99.90;;;;;;5033970;28;20517;-68
2023/01/19 00:20:40;;;;;;;7.45;1.20;;;2.90;99.90;;;;;;5033087;28;20121;-68
2023/01/19 00:23:06;;;;;;;2.92;1.00;;;3.00;99.90;;;;;;5034315;28;20076;-68
2023/01/19 00:25:32;;;;;;;5.03;1.38;;;3.00;99.90;;;;;;5033743;28;20071;-68
2023/01/19 00:27:59;;;;;;;7.10;1.45;;;3.00;99.90;;;;;;5033161;28;20172;-68
2023/01/19 00:30:24;;;;;;;5.18;1.10;;;3.00;99.90;;;;;;5033275;28;20133;-68
2023/01/19 00:32:50;;;;;;;5.43;1.40;;;3.00;99.90;;;;;;5016764;28;20554;-68
2023/01/19 00:35:16;;;;;;;6.75;1.60;;;2.90;99.90;;;;;;5033652;28;20045;-68
2023/01/19 00:37:44;;;;;;;4.45;1.30;;;3.00;99.90;;;;;;5032053;28;20076;-68
2023/01/19 00:40:12;;;;;;;7.80;1.20;;;3.00;99.90;;;;;;5033526;28;20045;-68
2023/01/19 00:42:43;;;;;;;7.18;1.63;;;3.00;99.90;;;;;;5032472;28;20144;-68
2023/01/19 00:45:19;;;;;;;12.40;2.15;;;3.00;99.90;;;;;;5034915;28;20397;-68
2023/01/19 00:47:47;;;;;;;8.95;1.60;;;3.00;99.90;;;;;;5032611;28;20609;-68
2023/01/19 00:50:15;;;;;;;6.43;1.17;;;3.00;99.90;;;;;;5033522;28;20394;-68
2023/01/19 00:52:42;;;;;;;4.88;1.10;;;3.10;99.90;;;;;;5031810;28;20053;-68
2023/01/19 00:55:10;;;;;;;5.70;1.02;;;3.00;99.90;;;;;;5033134;28;20046;-68
2023/01/19 00:57:37;;;;;;;3.95;1.05;;;3.00;99.90;;;;;;5032419;28;20048;-68
2023/01/19 01:00:05;;;;;;;7.43;1.33;;;3.00;99.90;;;;;;5034318;28;20034;-68
2023/01/19 01:02:31;;;;;;;5.78;1.10;;;3.00;99.90;;;;;;5032959;28;20045;-68
2023/01/19 01:04:57;;;;;;;7.70;1.70;;;3.10;99.90;;;;;;5031991;28;20132;-68
2023/01/19 01:07:23;;;;;;;4.70;1.20;;;3.10;99.90;;;;;;5033057;28;20505;-68
2023/01/19 01:09:49;;;;;;;7.30;1.30;;;3.10;99.90;;;;;;5032377;28;20554;-68
2023/01/19 01:12:15;;;;;;;7.82;1.42;;;3.10;99.90;;;;;;5033535;28;20042;-68
2023/01/19 01:14:41;;;;;;;6.45;1.58;;;3.20;99.90;;;;;;5033495;28;20121;-68
2023/01/19 01:17:10;;;;;;;10.32;1.30;;;3.20;99.90;;;;;;5032689;28;20393;-68
2023/01/19 01:19:37;;;;;;;5.00;1.27;;;3.20;99.90;;;;;;5031986;28;20056;-68
2023/01/19 01:22:03;;;;;;;6.00;1.40;;;3.20;99.90;;;;;;5033683;28;20402;-68
2023/01/19 01:24:29;;;;;;;5.10;1.33;;;3.20;99.90;;;;;;5033006;28;20098;-68
2023/01/19 01:26:54;;;;;;;6.40;1.92;;;3.20;99.90;;;;;;5031514;28;20494;-68
2023/01/19 01:29:20;;;;;;;5.80;1.85;;;3.20;99.90;;;;;;5033934;28;20041;-68
2023/01/19 01:31:46;;;;;;;7.85;1.40;;;3.30;99.90;;;;;;5031130;28;20041;-68
2023/01/19 01:34:12;;;;;;;7.85;1.50;;;3.30;99.90;;;;;;5033678;28;20081;-69
2023/01/19 01:36:37;;;;;;;8.75;1.70;;;3.30;99.90;;;;;;5031873;28;20502;-68
2023/01/19 01:39:03;;;;;;;6.00;1.45;;;3.30;99.90;;;;;;5015020;28;20037;-68
2023/01/19 01:41:29;;;;;;;9.07;2.90;;;3.40;99.90;;;;;;5032470;28;20090;-68
2023/01/19 01:44:01;;;;;;;7.30;1.20;;;3.40;99.90;;;;;;5031848;28;20041;-68
2023/01/19 01:46:29;;;;;;;9.25;1.50;;;3.40;99.90;;;;;;5031494;28;20056;-68
2023/01/19 01:49:09;;;;;;;7.80;1.58;;;3.40;99.90;;;;;;5031779;28;20045;-68
2023/01/19 01:51:48;;;;;;;10.45;1.58;;;3.40;99.90;;;;;;5032557;28;20096;-68
2023/01/19 01:54:29;;;;;;;7.53;1.60;;;3.40;99.90;;;;;;5031274;28;20042;-68
2023/01/19 01:57:00;;;;;;;9.73;1.73;;;3.50;99.90;;;;;;5032839;28;20042;-68
2023/01/19 01:59:33;;;;;;;7.90;1.40;;;3.40;99.90;;;;;;5032245;28;20397;-68
2023/01/19 02:04:54;;;;;;;8.07;1.63;;;3.50;99.90;;;;;;5031524;28;20049;-68
2023/01/19 02:13:21;;;;;;;6.93;1.93;;;3.50;99.90;;;;;;5031706;28;20050;-68
2023/01/19 02:16:04;;;;;;;9.20;1.55;;;3.40;99.90;;;;;;5031617;28;20380;-68
2023/01/19 02:18:31;;;;;;;7.80;2.08;;;3.40;99.90;;;;;;5033186;28;20429;-68
2023/01/19 02:21:08;;;;;;;7.28;1.40;;;3.40;99.90;;;;;;5013764;28;20083;-68
2023/01/19 02:23:40;;;;;;;4.20;1.13;;;3.40;99.90;;;;;;5032812;28;20116;-68
2023/01/19 02:26:08;;;;;;;5.88;1.15;;;3.40;99.90;;;;;;5031548;28;20056;-68
2023/01/19 02:28:41;;;;;;;4.78;1.40;;;3.30;99.90;;;;;;5030627;28;20050;-68
2023/01/19 02:31:07;;;;;;;6.70;1.17;;;3.30;99.90;;;;;;5031390;28;20052;-68
2023/01/19 02:33:32;;;;;;;6.63;1.30;;;3.30;99.90;;;;;;5031262;28;20046;-68
2023/01/19 02:35:59;;;;;;;7.85;1.15;;;3.40;99.90;;;;;;5031197;28;20037;-68
2023/01/19 02:38:27;;;;;;;8.85;1.55;;;3.40;99.90;;;;;;5032808;28;20076;-68
2023/01/19 02:40:56;;;;;;;6.88;1.13;;;3.30;99.90;;;;;;5030890;28;20552;-68
2023/01/19 02:43:23;;;;;;;6.15;1.35;;;3.30;99.90;;;;;;5030296;28;20043;-68
2023/01/19 02:45:49;;;;;;;7.05;1.33;;;3.40;99.90;;;;;;5032013;28;20041;-68
2023/01/19 02:48:17;;;;;;;6.90;1.30;;;3.40;99.90;;;;;;5015103;28;20052;-68
2023/01/19 02:50:48;;;;;;;4.85;0.90;;;3.30;99.90;;;;;;5029921;28;20045;-68
2023/01/19 02:53:31;;;;;;;7.22;0.90;;;3.30;99.90;;;;;;5032334;28;20045;-68
2023/01/19 02:56:23;;;;;;;5.53;1.00;;;3.30;99.90;;;;;;5014068;28;20486;-68
2023/01/19 02:58:58;;;;;;;6.25;1.38;;;3.30;99.90;;;;;;5030648;28;20148;-68
2023/01/19 03:01:37;;;;;;;5.27;1.23;;;3.30;99.90;;;;;;5032378;28;20037;-68
2023/01/19 03:04:32;;;;;;;7.15;1.23;;;3.30;99.90;;;;;;5031077;28;20041;-68
2023/01/19 03:07:10;;;;;;;9.15;1.50;;;3.40;99.90;;;;;;5031825;28;20059;-68
2023/01/19 03:10:11;;;;;;;5.40;1.30;;;3.40;99.90;;;;;;5031035;28;20076;-68
2023/01/19 03:12:44;;;;;;;5.60;1.25;;;3.50;99.90;;;;;;5030888;28;20390;-68
2023/01/19 03:15:17;;;;;;;6.03;1.17;;;3.50;99.90;;;;;;5033404;28;20045;-68
2023/01/19 03:17:47;;;;;;;5.95;1.00;;;3.50;99.90;;;;;;5033700;28;20045;-68
2023/01/19 03:20:15;;;;;;;5.70;0.80;;;3.60;99.90;;;;;;5036407;28;20037;-68
2023/01/19 03:22:41;;;;;;;4.00;0.70;;;3.60;99.90;;;;;;5034265;28;20041;-68
2023/01/19 03:25:08;;;;;;;4.85;1.63;;;3.60;99.90;;;;;;5035389;28;20055;-68
2023/01/19 03:27:39;;;;;;;5.93;0.90;;;3.60;99.90;;;;;;5035037;28;20038;-68
2023/01/19 03:30:17;;;;;;;6.38;1.20;;;3.60;99.90;;;;;;5035033;28;20045;-67
2023/01/19 03:32:49;;;;;;;4.03;0.85;;;3.60;99.90;;;;;;5033305;28;20045;-68
2023/01/19 03:35:17;;;;;;;3.67;0.90;;;3.60;99.90;;;;;;5035988;28;20099;-67
2023/01/19 03:37:45;;;;;;;7.60;1.20;;;3.70;99.90;;;;;;5034023;28;20049;-68
2023/01/19 03:40:11;;;;;;;3.47;0.90;;;3.70;99.90;;;;;;5034126;28;20037;-68
2023/01/19 03:42:39;;;;;;;5.38;0.98;;;3.70;99.90;;;;;;5035530;28;20072;-68
2023/01/19 03:45:07;;;;;;;4.45;0.85;;;3.70;99.90;;;;;;5035748;28;20486;-68
2023/01/19 03:47:34;;;;;;;8.23;1.25;;;3.70;99.90;;;;;;5034791;28;20544;-68
2023/01/19 03:50:03;;;;;;;3.13;1.10;;;3.70;99.90;;;;;;5034101;28;20092;-68
2023/01/19 03:52:33;;;;;;;6.72;1.10;;;3.70;99.90;;;;;;5017573;28;20088;-68
2023/01/19 03:55:01;;;;;;;4.63;1.13;;;3.70;99.90;;;;;;5035089;28;20037;-66
2023/01/19 03:57:26;;;;;;;6.32;1.23;;;3.70;99.90;;;;;;5035519;28;20037;-66
2023/01/19 03:59:52;;;;;;;3.15;0.70;;;3.70;99.90;;;;;;5033000;28;20052;-66
2023/01/19 04:02:18;;;;;;;5.40;1.02;;;3.70;99.90;;;;;;5034244;28;20390;-66
2023/01/19 04:04:44;;;;;;;3.53;0.80;;;3.70;99.90;;;;;;5035160;28;20075;-66
2023/01/19 04:07:09;;;;;;;5.35;1.05;;;3.70;99.90;;;;;;5033329;28;20053;-66
2023/01/19 04:09:35;;;;;;;3.55;0.85;;;3.70;99.90;;;;;;5034131;28;20052;-66
2023/01/19 04:12:02;;;;;;;7.15;1.05;;;3.70;99.90;;;;;;5033414;28;20041;-66
2023/01/19 04:14:28;;;;;;;9.48;1.70;;;3.70;99.90;;;;;;5034532;28;20037;-66
2023/01/19 04:16:53;;;;;;;7.35;1.20;;;3.70;99.90;;;;;;5034757;28;20387;-66
2023/01/19 04:19:19;;;;;;;5.18;1.13;;;3.70;99.90;;;;;;5035283;28;20042;-66
2023/01/19 04:21:48;;;;;;;7.55;1.77;;;3.60;99.90;;;;;;5034001;28;20390;-66
2023/01/19 04:24:14;;;;;;;4.90;1.00;;;3.70;99.90;;;;;;5035276;28;20099;-66
2023/01/19 04:26:39;;;;;;;5.20;1.40;;;3.60;99.90;;;;;;5034092;28;20041;-66
2023/01/19 04:29:05;;;;;;;6.45;1.10;;;3.60;99.90;;;;;;5032927;28;20052;-66
2023/01/19 04:31:31;;;;;;;5.35;0.90;;;3.60;99.90;;;;;;5033681;28;20124;-66
2023/01/19 04:33:57;;;;;;;4.65;0.98;;;3.60;99.90;;;;;;5034473;28;20442;-66
2023/01/19 04:36:23;;;;;;;6.30;0.90;;;3.60;99.90;;;;;;5032574;28;20049;-66
2023/01/19 04:38:48;;;;;;;4.97;0.95;;;3.60;99.90;;;;;;5045090;28;20120;-66
2023/01/19 04:41:14;;;;;;;3.53;0.85;;;3.60;99.90;;;;;;5053100;28;20049;-66
2023/01/19 04:43:39;;;;;;;6.93;1.50;;;3.60;99.90;;;;;;5053046;28;20151;-66
2023/01/19 04:46:05;;;;;;;7.68;2.00;;;3.60;99.90;;;;;;5036693;28;20044;-66
2023/01/19 04:48:31;;;;;;;7.78;1.60;;;3.70;99.90;;;;;;5053212;28;20052;-66
2023/01/19 04:50:57;;;;;;;5.50;1.33;;;3.60;99.90;;;;;;5052583;28;20441;-66
2023/01/19 04:53:23;;;;;;;6.53;1.20;;;3.60;99.90;;;;;;5054458;28;20045;-66
2023/01/19 04:55:55;;;;;;;5.97;2.05;;;3.60;99.90;;;;;;5052771;28;20386;-66
2023/01/19 04:58:20;;;;;;;9.07;2.63;;;3.70;99.90;;;;;;5054417;28;20041;-66
2023/01/19 05:00:46;;;;;;;9.48;2.15;;;3.70;99.90;;;;;;5053737;28;20029;-66
2023/01/19 05:03:12;;;;;;;6.43;2.17;;;3.70;99.90;;;;;;5053811;28;20041;-66
2023/01/19 05:05:37;;;;;;;10.30;1.70;;;3.70;99.90;;;;;;5052765;28;20048;-66
2023/01/19 05:08:03;;;;;;;8.02;2.40;;;3.70;99.90;;;;;;5054191;28;20041;-66
2023/01/19 05:10:29;;;;;;;6.35;1.55;;;3.70;99.90;;;;;;5052004;28;20052;-66
2023/01/19 05:12:54;;;;;;;6.45;1.60;;;3.70;99.90;;;;;;5035661;28;20052;-66
2023/01/19 05:15:20;;;;;;;6.10;1.55;;;3.70;99.90;;;;;;5052816;28;20120;-66
2023/01/19 05:17:46;;;;;;;10.23;1.98;;;3.70;99.90;;;;;;5051383;28;20036;-67
2023/01/19 05:20:13;;;;;;;6.18;1.38;;;3.70;99.90;;;;;;5054150;28;20043;-67
2023/01/19 05:22:38;;;;;;;9.50;1.80;;;3.70;99.90;;;;;;5052356;28;20041;-66
2023/01/19 05:25:07;;;;;;;8.82;1.60;;;3.80;99.90;;;;;;5051353;28;20462;-66
2023/01/19 05:27:38;;;;;;;5.07;1.50;;;3.80;99.90;;;;;;5053002;28;20036;-69
2023/01/19 05:30:05;;;;;;;7.55;1.67;;;3.70;99.90;;;;;;5052547;28;20037;-69
2023/01/19 05:32:30;;;;;;;7.85;1.85;;;3.70;99.90;;;;;;5053056;28;20068;-66
2023/01/19 05:34:56;;;;;;;6.38;1.45;;;3.70;99.90;;;;;;5051927;28;20082;-69
2023/01/19 05:37:21;;;;;;;6.68;1.63;;;3.70;99.90;;;;;;5052709;28;20056;-69
2023/01/19 05:39:47;;;;;;;10.45;1.73;;;3.70;99.90;;;;;;5050595;28;20379;-69
2023/01/19 05:42:13;;;;;;;5.50;2.15;;;3.70;99.90;;;;;;5052185;28;20084;-69
2023/01/19 05:44:38;;;;;;;7.28;1.60;;;3.70;99.90;;;;;;5051859;28;20072;-67
2023/01/19 05:47:04;;;;;;;13.68;2.10;;;3.60;99.90;;;;;;5051438;28;20063;-66
2023/01/19 05:49:30;;;;;;;7.13;1.63;;;3.60;99.90;;;;;;5052115;28;20471;-66
2023/01/19 05:51:55;;;;;;;6.90;1.70;;;3.60;99.90;;;;;;5052061;28;20405;-66
2023/01/19 05:54:21;;;;;;;14.80;2.72;;;3.60;99.90;;;;;;5051806;28;20128;-67
2023/01/19 05:56:46;;;;;;;5.78;1.60;;;3.60;99.90;;;;;;5034868;28;20036;-67
2023/01/19 05:59:12;;;;;;;7.32;1.90;;;3.60;99.90;;;;;;5051103;28;20557;-66
2023/01/19 06:01:38;;;;;;;7.35;2.10;;;3.60;99.90;;;;;;5051687;28;20445;-66
2023/01/19 06:04:04;;;;;;;9.38;1.90;;;3.60;99.90;;;;;;5051858;28;20064;-67
2023/01/19 06:06:30;;;;;;;10.70;2.03;;;3.60;99.90;;;;;;5052332;28;20525;-66
2023/01/19 06:08:56;;;;;;;8.45;2.03;;;3.70;99.90;;;;;;5051153;28;20048;-66
2023/01/19 06:11:21;;;;;;;7.03;1.73;;;3.70;99.90;;;;;;5052031;28;20514;-66
2023/01/19 06:13:47;;;;;;;9.82;2.67;;;3.80;99.90;;;;;;5050449;28;20432;-66
2023/01/19 06:16:13;;;;;;;12.35;2.60;;;3.80;99.90;;;;;;5051921;28;20482;-66
2023/01/19 06:18:39;;;;;;;13.18;2.88;;;3.80;99.90;;;;;;5052541;28;20036;-66
2023/01/19 06:21:06;;;;;;;8.63;2.05;;;3.80;99.90;;;;;;5051147;28;20540;-66
2023/01/19 06:23:33;;;;;;;11.90;2.25;;;3.90;99.90;;;;;;5051878;28;20071;-66
2023/01/19 06:25:59;;;;;;;8.85;2.13;;;3.90;99.90;;;;;;5052065;28;20044;-66
2023/01/19 06:28:25;;;;;;;13.57;2.95;;;3.90;99.90;;;;;;5051986;28;20084;-66
2023/01/19 06:30:53;;;;;;;14.82;2.50;;;3.90;99.90;;;;;;5050955;28;20083;-66
2023/01/19 06:33:19;;;;;;;10.70;2.97;;;3.90;99.90;;;;;;5051325;28;20048;-66
2023/01/19 06:35:47;;;;;;;10.65;2.63;;;3.90;99.90;;;;;;5051273;28;20072;-66
2023/01/19 06:38:13;;;;;;;16.05;2.65;;;3.90;99.90;;;;;;5050871;28;20103;-66
2023/01/19 06:40:42;;;;;;;10.70;3.10;;;3.90;99.90;;;;;;5051848;28;20117;-67
2023/01/19 06:43:08;;;;;;;13.40;2.92;;;3.90;99.90;;;;;;5051889;28;20441;-66
2023/01/19 06:45:34;;;;;;;11.68;2.65;;;4.00;99.90;;;;;;5051334;28;20079;-66
2023/01/19 06:48:00;;;;;;;9.15;2.55;;;4.10;99.90;;;;;;5033943;28;20053;-66
2023/01/19 06:50:26;;;;;;;11.20;1.77;;;4.10;99.90;;;;;;5051526;28;20048;-66
2023/01/19 06:52:52;;;;;;;8.63;2.20;;;4.20;99.90;;;;;;5050272;28;20044;-66
2023/01/19 06:55:18;;;;;;;8.30;1.90;;;4.10;99.90;;;;;;5033576;28;20044;-66
2023/01/19 06:57:43;;;;;;;13.95;3.10;;;4.20;99.90;;;;;;5050475;28;20394;-67
2023/01/19 07:00:11;;;;;;;8.30;1.73;;;4.20;99.90;;;;;;5052355;28;20040;-67
2023/01/19 07:02:43;;;;;;;6.78;1.83;;;4.10;99.90;;;;;;5049875;28;20041;-67
2023/01/19 07:05:10;;;;;;;9.43;2.22;;;4.20;99.90;;;;;;5050879;28;20041;-67
2023/01/19 07:07:38;;;;;;;11.63;2.45;;;4.20;99.90;;;;;;5034246;28;20053;-67
2023/01/19 07:10:06;;;;;;;17.00;3.60;;;4.30;99.90;;;;;;5050325;28;20102;-66
2023/01/19 07:12:33;;;;;;;11.52;2.63;;;4.30;99.90;;;;;;5034575;28;20043;-66
2023/01/19 07:14:58;;;;;;;14.85;3.00;;;4.20;99.90;;;;;;5033777;28;20052;-67
2023/01/19 07:17:24;;;;;;;8.95;2.53;;;4.30;99.90;;;;;;5050072;28;20043;-66
2023/01/19 07:19:50;;;;;;;16.77;3.28;;;4.30;99.90;;;;;;5050198;28;20424;-66
2023/01/19 07:22:16;;;;;;;14.57;2.35;;;4.20;99.90;;;;;;5050677;28;20534;-66
2023/01/19 07:24:41;;;;;;;8.73;2.35;;;4.20;99.90;;;;;;5049687;28;20045;-66
2023/01/19 07:27:07;;;;;;;15.05;3.40;;;4.20;99.90;;;;;;5050840;28;20444;-67
2023/01/19 07:29:33;;;;;;;21.33;4.78;;;4.20;99.90;;;;;;5051948;28;20159;-67
2023/01/19 07:31:59;;;;;;;17.17;4.28;;;4.20;99.90;;;;;;5049287;28;20044;-66
2023/01/19 07:34:24;;;;;;;14.20;2.90;;;4.20;99.90;;;;;;5050600;28;20516;-66
2023/01/19 07:36:50;;;;;;;9.35;3.10;;;4.10;99.90;;;;;;5051050;28;20139;-67
2023/01/19 07:39:16;;;;;;;11.00;2.78;;;4.20;99.90;;;;;;5049751;28;20151;-67
2023/01/19 07:41:41;;;;;;;10.27;2.95;;;4.20;99.90;;;;;;5049207;28;20044;-67
2023/01/19 07:44:07;;;;;;;14.43;2.90;;;4.20;99.90;;;;;;5051868;28;20037;-66
2023/01/19 07:46:33;;;;;;;13.80;2.83;;;4.20;99.90;;;;;;5049327;28;20049;-67
2023/01/19 07:48:59;;;;;;;8.10;2.75;;;4.10;99.90;;;;;;5049944;28;20048;-67
2023/01/19 07:51:26;;;;;;;14.20;3.60;;;4.10;99.90;;;;;;5034062;28;20084;-66
2023/01/19 07:53:52;;;;;;;18.40;3.45;;;4.00;99.90;;;;;;5049671;28;20482;-66
2023/01/19 07:56:17;;;;;;;17.25;3.13;;;4.00;99.90;;;;;;5051883;28;20044;-66
2023/01/19 07:58:43;;;;;;;6.28;1.92;;;4.00;99.90;;;;;;5046704;28;20389;-67
2023/01/19 08:01:11;;;;;;;11.85;3.50;;;3.90;99.90;;;;;;5049804;28;20503;-66
2023/01/19 08:03:37;;;;;;;15.15;3.70;;;3.90;99.90;;;;;;5034282;28;20053;-66
2023/01/19 08:06:04;;;;;;;13.15;4.07;;;3.80;99.90;;;;;;5050353;28;20174;-66
2023/01/19 08:08:31;;;;;;;16.17;4.80;;;3.80;99.90;;;;;;5052591;28;20594;-66
2023/01/19 08:10:57;;;;;;;15.43;3.30;;;3.80;99.90;;;;;;5050943;28;20131;-66
2023/01/19 08:13:23;;;;;;;16.10;3.95;;;3.70;99.90;;;;;;5050202;28;20167;-66
2023/01/19 08:15:50;;;;;;;8.98;3.45;;;3.70;99.90;;;;;;5049872;28;20040;-66
2023/01/19 08:18:17;;;;;;;13.00;2.95;;;3.60;99.90;;;;;;5050423;28;20056;-66
2023/01/19 08:20:42;;;;;;;13.50;3.22;;;3.60;99.90;;;;;;5049272;28;20047;-66
2023/01/19 08:23:09;;;;;;;12.18;2.95;;;3.60;99.90;;;;;;5049551;28;20036;-66
2023/01/19 08:25:44;;;;;;;11.02;4.03;;;3.50;99.90;;;;;;5050572;28;20033;-69
2023/01/19 08:28:12;;;;;;;10.57;3.10;;;3.60;99.90;;;;;;5051053;28;20543;-69
2023/01/19 08:30:39;;;;;;;21.25;3.47;;;3.60;99.90;;;;;;5048789;28;20052;-69
2023/01/19 08:33:07;;;;;;;17.75;2.83;;;3.80;99.90;;;;;;5033453;28;20052;-69
2023/01/19 08:35:38;;;;;;;21.27;3.05;;;3.80;99.90;;;;;;5037878;28;20118;-69
2023/01/19 08:38:06;;;;;;;15.70;3.45;;;3.90;99.90;;;;;;5049058;28;20501;-69
2023/01/19 08:40:37;;;;;;;12.73;2.65;;;3.90;99.90;;;;;;5048860;28;20225;-69
2023/01/19 08:43:08;;;;;;;15.82;3.63;;;4.00;99.90;;;;;;5050277;28;20068;-69
2023/01/19 09:26:06;;;;;;;9.25;2.10;;;3.60;99.90;;;;;;5049677;28;20079;-66
2023/01/19 09:28:33;;;;;;;8.60;2.00;;;3.60;99.90;;;;;;5050855;28;20067;-66
2023/01/19 09:31:02;;;;;;;28.65;2.45;;;3.60;99.90;;;;;;5048643;28;20045;-66
2023/01/19 09:33:28;;;;;;;8.60;2.20;;;3.70;99.90;;;;;;5049515;28;20040;-66
2023/01/19 09:35:55;;;;;;;7.30;2.30;;;3.70;99.90;;;;;;5049952;28;20041;-68
2023/01/19 09:38:24;;;;;;;10.48;2.80;;;3.80;99.90;;;;;;5065038;28;20122;-67
2023/01/19 09:40:53;;;;;;;6.03;1.55;;;3.80;99.90;;;;;;5063688;28;20531;-67
2023/01/19 09:43:35;;;;;;;8.98;2.00;;;3.80;99.90;;;;;;5048892;28;20123;-67
2023/01/19 09:46:09;;;;;;;8.57;2.53;;;3.80;99.90;;;;;;5048125;28;20510;-66
2023/01/19 09:48:44;;;;;;;14.25;2.08;;;3.80;99.90;;;;;;5049331;28;20131;-66
2023/01/19 09:51:17;;;;;;;11.02;3.15;;;3.80;99.90;;;;;;5049617;28;20057;-67
2023/01/19 09:53:50;;;;;;;9.15;2.42;;;3.80;99.90;;;;;;5048672;28;20040;-66
2023/01/19 09:56:20;;;;;;;7.15;2.00;;;3.90;99.90;;;;;;5050380;28;20037;-65
2023/01/19 09:58:48;;;;;;;7.68;2.10;;;3.90;99.90;;;;;;5047950;28;20048;-66
2023/01/19 10:01:34;;;;;;;11.05;2.15;;;4.00;99.90;;;;;;5050107;28;20072;-66
2023/01/19 10:04:06;;;;;;;10.35;2.33;;;4.00;99.90;;;;;;5032560;28;20394;-65
2023/01/19 10:06:32;;;;;;;7.22;2.20;;;4.00;99.90;;;;;;5031928;28;20044;-67
2023/01/19 10:09:13;;;;;;;10.68;2.70;;;4.00;99.90;;;;;;5049728;28;20036;-66
2023/01/19 10:12:07;;;;;;;10.93;3.05;;;4.10;99.90;;;;;;5048374;28;20045;-66
2023/01/19 10:14:46;;;;;;;9.95;2.88;;;4.10;99.90;;;;;;5050293;28;20135;-63
2023/01/19 10:17:18;;;;;;;12.88;4.07;;;4.20;99.90;;;;;;5030889;28;20037;-64
2023/01/19 10:19:50;;;;;;;6.97;2.30;;;4.30;99.90;;;;;;5049334;28;20043;-62
2023/01/19 10:22:25;;;;;;;9.38;2.95;;;4.40;99.90;;;;;;5050312;28;20099;-62
2023/01/19 10:25:00;;;;;;;6.93;3.17;;;4.50;99.90;;;;;;5048125;28;20486;-61
2023/01/19 10:27:30;;;;;;;11.48;2.47;;;4.70;99.90;;;;;;5031149;28;20048;-62
2023/01/19 10:29:57;;;;;;;14.90;2.50;;;4.80;99.90;;;;;;5048295;28;20045;-60
2023/01/19 10:36:05;;;;;;;12.63;2.92;;;5.10;99.90;;;;;;5047527;28;20103;-62
2023/01/19 10:38:33;;;;;;;19.38;3.67;;;5.20;99.90;;;;;;5050539;28;20052;-61
2023/01/19 10:41:14;;;;;;;6.95;2.40;;;5.30;99.90;;;;;;5047383;28;20073;-63
2023/01/19 10:43:43;;;;;;;14.45;2.58;;;5.40;99.90;;;;;;5043480;28;20087;-62
2023/01/19 10:46:27;;;;;;;10.32;2.25;;;5.40;99.90;;;;;;5048503;28;20083;-62
2023/01/19 10:48:53;;;;;;;11.57;2.95;;;5.40;99.90;;;;;;5049107;28;20056;-62
2023/01/19 10:51:21;;;;;;;9.10;2.20;;;5.50;99.90;;;;;;5050215;28;20138;-62
2023/01/19 10:54:13;;;;;;;9.65;2.00;;;5.50;99.90;;;;;;5050534;28;20133;-63
2023/01/19 10:56:39;;;;;;;13.27;2.13;;;5.50;99.90;;;;;;5050709;28;20128;-67
2023/01/19 10:59:06;;;;;;;4.85;1.55;;;5.50;99.90;;;;;;5034377;28;20164;-68
2023/01/19 11:01:35;;;;;;;6.45;1.40;;;5.50;99.90;;;;;;5051317;28;20412;-67
2023/01/19 11:04:20;;;;;;;7.45;1.40;;;5.50;99.90;;;;;;5050212;28;20053;-67
2023/01/19 11:06:45;;;;;;;9.48;2.75;;;5.50;99.90;;;;;;5051464;28;20037;-66
2023/01/19 11:09:19;;;;;;;8.25;1.25;;;5.60;99.90;;;;;;5050006;28;20540;-65
2023/01/19 11:11:50;;;;;;;7.38;1.63;;;5.60;99.90;;;;;;5050084;28;20043;-66
2023/01/19 11:14:22;;;;;;;5.47;1.45;;;5.60;99.90;;;;;;5050816;28;20032;-65
2023/01/19 11:16:57;;;;;;;10.15;2.38;;;5.60;99.90;;;;;;5039140;28;20413;-65
2023/01/19 11:19:29;;;;;;;6.75;1.30;;;5.70;99.90;;;;;;5033815;28;20045;-66
2023/01/19 11:22:20;;;;;;;10.30;1.33;;;5.80;99.90;;;;;;5051006;28;20112;-65
2023/01/19 11:24:46;;;;;;;8.65;1.40;;;5.80;99.90;;;;;;5048866;28;20706;-66
2023/01/19 11:27:16;;;;;;;9.77;1.77;;;5.90;99.90;;;;;;5050115;28;20053;-65
2023/01/19 11:29:48;;;;;;;9.55;1.85;;;6.00;99.90;;;;;;5030935;28;20037;-65
2023/01/19 11:32:22;;;;;;;5.70;1.13;;;6.00;99.90;;;;;;5033334;28;20036;-65
2023/01/19 11:34:48;;;;;;;7.15;1.40;;;6.00;99.90;;;;;;5049702;28;20033;-67
2023/01/19 11:37:17;;;;;;;8.27;2.45;;;6.00;99.90;;;;;;5053196;28;20102;-65
2023/01/19 11:39:54;;;;;;;9.05;1.83;;;6.00;99.90;;;;;;5054098;28;20040;-66
2023/01/19 11:42:21;;;;;;;6.32;1.42;;;5.90;99.90;;;;;;5055057;28;20033;-65
2023/01/19 11:45:15;;;;;;;8.63;1.90;;;5.90;99.90;;;;;;5053416;28;20063;-65
2023/01/19 11:47:44;;;;;;;10.73;2.03;;;5.90;99.90;;;;;;5042317;28;20124;-65
2023/01/19 11:50:48;;;;;;;8.10;1.77;;;5.90;99.90;;;;;;5068063;28;20037;-66
2023/01/19 11:53:17;;;;;;;9.13;2.17;;;5.90;99.90;;;;;;5044975;28;20504;-66
2023/01/19 11:56:06;;;;;;;6.13;1.48;;;5.90;99.90;;;;;;5052293;28;20121;-66
2023/01/19 11:58:37;;;;;;;6.78;1.50;;;5.80;99.90;;;;;;5032741;28;20048;-66
2023/01/19 12:01:03;;;;;;;7.45;2.03;;;5.80;99.90;;;;;;5037960;28;20033;-66
2023/01/19 12:03:42;;;;;;;6.60;1.40;;;5.70;99.90;;;;;;5055188;28;20049;-66
2023/01/19 12:06:22;;;;;;;6.30;1.27;;;5.70;99.90;;;;;;5053338;28;20212;-66
2023/01/19 12:09:22;;;;;;;8.18;1.60;;;5.60;99.90;;;;;;5054747;28;20530;-65
2023/01/19 12:12:03;;;;;;;6.57;1.73;;;5.50;99.90;;;;;;5047143;28;20044;-66
2023/01/19 12:14:54;;;;;;;6.63;1.45;;;5.40;99.90;;;;;;5036490;28;20516;-66
2023/01/19 12:17:30;;;;;;;4.45;1.05;;;5.30;99.90;;;;;;5053220;28;20040;-65
2023/01/19 13:08:19;;;;;;;10.32;2.13;;;4.60;99.90;;;;;;5171772;27;20114;-60
2023/01/19 13:11:04;;;;;;;7.82;3.63;;;5.30;99.90;;;;;;5148860;27;20455;-60
2023/01/19 13:13:35;;;;;;;8.40;1.55;;;5.20;99.90;;;;;;5149236;27;20125;-61
2023/01/19 13:16:19;;;;;;;7.45;2.15;;;5.20;99.90;;;;;;5151169;27;20049;-61
2023/01/19 13:18:58;;;;;;;6.30;1.88;;;5.10;99.90;;;;;;5150182;27;20087;-61
2023/01/19 13:21:30;;;;;;;10.20;1.95;;;5.20;99.90;;;;;;5149328;27;20406;-61
2023/01/19 13:24:11;;;;;;;4.75;1.40;;;5.20;99.90;;;;;;5149582;27;20043;-60
2023/01/19 16:36:26;;;;;;;23.17;19.23;;;2.60;99.90;;;;;;5106243;27;20439;-60
2023/01/19 16:38:52;;;;;;;9.27;5.32;;;2.80;99.90;;;;;;5047791;28;20049;-60
2023/01/19 16:41:18;;;;;;;6.38;3.17;;;2.70;99.90;;;;;;5053661;28;20041;-60
2023/01/19 16:43:50;;;;;;;6.30;2.40;;;2.60;99.90;;;;;;5048805;28;20044;-60
2023/01/19 16:46:24;;;;;;;6.75;2.00;;;2.60;99.90;;;;;;5051750;28;20047;-60
2023/01/19 16:48:50;;;;;;;11.02;4.93;;;2.50;99.90;;;;;;5059377;28;20102;-60
2023/01/19 16:51:17;;;;;;;6.63;2.13;;;2.50;99.90;;;;;;5047784;28;20036;-61
2023/01/19 16:53:43;;;;;;;8.50;2.50;;;2.60;99.90;;;;;;5043806;28;20037;-60
2023/01/19 16:56:13;;;;;;;14.15;6.72;;;2.50;99.90;;;;;;5052033;28;20140;-60
2023/01/19 16:58:39;;;;;;;11.25;5.80;;;2.60;99.90;;;;;;5061944;28;20044;-60
2023/01/19 17:01:11;;;;;;;9.52;3.10;;;2.60;99.90;;;;;;5059908;28;20087;-60
2023/01/19 17:03:37;;;;;;;7.43;3.15;;;2.70;99.90;;;;;;5027274;28;20051;-61
2023/01/19 17:06:05;;;;;;;4.55;1.50;;;2.70;99.90;;;;;;5044911;28;20041;-61
2023/01/19 17:08:31;;;;;;;2.25;0.75;;;2.70;99.90;;;;;;5054723;28;20037;-61
2023/01/19 17:10:57;;;;;;;11.38;1.70;;;2.60;99.90;;;;;;5052459;28;20420;-61
2023/01/19 17:13:22;;;;;;;1.35;0.60;;;2.50;99.90;;;;;;5050135;28;20051;-61
2023/01/19 17:15:48;;;;;;;3.03;1.30;;;2.40;99.90;;;;;;5055421;28;20382;-60
2023/01/19 17:18:14;;;;;;;1.58;0.45;;;2.30;99.90;;;;;;5069128;28;20851;-61
2023/01/19 17:20:40;;;;;;;2.45;0.73;;;2.30;99.90;;;;;;5063189;28;20032;-61
2023/01/19 17:23:05;;;;;;;2.22;0.65;;;2.20;99.90;;;;;;5046029;28;20135;-60
2023/01/19 17:25:31;;;;;;;1.08;0.40;;;2.10;99.90;;;;;;5047422;28;20401;-60
2023/01/19 17:27:59;;;;;;;2.03;0.47;;;2.00;99.90;;;;;;5064917;28;20044;-60
2023/01/19 17:30:25;;;;;;;17.42;10.88;;;2.00;99.90;;;;;;5063070;28;20133;-61
2023/01/19 17:32:51;;;;;;;7.00;2.35;;;2.00;99.90;;;;;;5068098;28;20070;-61
2023/01/19 17:35:17;;;;;;;45.67;23.48;;;2.00;99.90;;;;;;5052126;28;20155;-61
2023/01/19 17:37:42;;;;;;;15.32;8.32;;;1.90;99.90;;;;;;5039643;28;20041;-61
2023/01/19 17:40:09;;;;;;;78.60;42.08;;;1.90;99.90;;;;;;5033158;28;20037;-61
2023/01/19 17:42:39;;;;;;;183.20;91.78;;;1.90;99.90;;;;;;5037709;28;20065;-61
2023/01/19 17:45:05;;;;;;;172.70;94.40;;;1.90;99.90;;;;;;5044432;28;20104;-61
2023/01/19 17:47:31;;;;;;;33.22;20.85;;;1.90;99.90;;;;;;5049227;28;20045;-61
2023/01/19 17:49:57;;;;;;;11.82;7.35;;;2.00;99.90;;;;;;5047674;28;20037;-61
2023/01/19 17:52:22;;;;;;;8.05;3.85;;;1.90;99.90;;;;;;5050490;28;20408;-61
2023/01/19 17:54:48;;;;;;;6.32;2.53;;;1.90;99.90;;;;;;5050574;28;20055;-61